Perdriel, Argentina
Current Conditions -  °F | °C
As of 9:00 AM on Monday 24 Nov 2014 (Local Time) from SAME Reporting Station
Few Clouds Few Clouds  
Wind Chill: 66°   Ceiling: Unl
Heat Index: 66°   Visibility: 6mi
Dew Point: 36°   Wind: 12mph
Humidity: 32%   Direction: 140°SE
Pressure: 29.97"   Gusts: NA
Location:  33.15°S, 68.88°W
Report Text: SAME 241200Z 14010KT 9999 FEW040 19/02 Q1015
Loading
Personal Weather Stations






























Interactive Weather Map New forecast layout! Learn more

10-Day Weather Forecast

Advertisements
Track Severe Weather on mobile